Detall de PIREP

Printer-friendly versionPDF version

[2011/05/31 08:28:00]
Flight IATA:CT1005
Pilot Number:011
Company ICAO:CAT
Aircraft Type:F28/A
PAX:85
Departing Airport: LFBD
Destination Airport: ELLX
Alternate Airport:LFPG
Online: VATSIM
Route:CNA UN858 TSU UM163 MMD
Flight Level:F320
No Slew and time accel
No pause
Crash detect
Detect pilot in Cockpit between each 30 and 45 minutes
08:28 Zero fuel Weight: 59656 Lbs, Fuel Weight: 11867 Lbs
08:28 VATSIM:LFBD 310800Z 34013KT 310V020 9999 FEW026 SCT100 BKN260 16/07 Q1022 NOSIG
08:28 VATSIM:ELLX 310750Z 30010KT 260V340 7000 -RA SCT009 BKN025 13/13 Q1012 NOSIG
08:30 Parking Brakes off
08:36 Take-off
08:36 Take off Weight: 71136 Lbs
08:36 Wind: 344º @ 013 Knots Heading: 226º
08:36 POS N44º 49´ 37´´ W000º 43´ 03´´
08:36 Gear Up: 165 Knots
08:36 Flaps:2 at 165 Knots
08:39 Flaps:1 at 232 Knots
08:39 Flaps:0 at 239 Knots
08:51 Wind:340º@041 Knots Heading: 015º Ground Speed: 326 Knots Altitude 20337 ft
08:58 TOC
08:58 Fuel Weight: 9009 Lb
09:06 Wind:334º@043 Knots Heading: 007º Ground Speed: 400 Knots Altitude 32250 ft
09:21 Wind:301º@032 Knots Heading: 052º Ground Speed: 434 Knots Altitude 32201 ft
09:35 TOD
09:35 Fuel Weight: 6383 Lb
09:36 Wind:300º@051 Knots Heading: 073º Ground Speed: 472 Knots Altitude 30541 ft
09:51 Wind:288º@011 Knots Heading: 254º Ground Speed: 250 Knots Altitude 4914 ft
09:55 Flaps:1 at 187 Knots
09:55 Flaps:2 at 183 Knots
09:55 Flaps:3 at 178 Knots
09:56 Gear Down: 176 Knots
09:56 Flaps:4 at 165 Knots
09:57 Flaps:5 at 153 Knots
09:59 Gear Up: 135 Knots
09:59 Gear Down: 135 Knots
09:59 TouchDown:Rate -154 ft/min Speed: 111 Knots
09:59 VATSIM:ELLX 310920Z 29010KT 250V320 9999 BKN010 13/12 Q1014 NOSIG
09:59 Land
09:59 Wind:291º@010 Knots
09:59 Heading: 060º
09:59 Flight Duration: 01:23
09:59 Landing Weight: 65143 Lbs
09:59 POS N49º 37´ 30´´ E006º 12´ 26´´
10:01 Parking brakes on
10:01 Block to Block Duration: 01:31
10:01 Final Fuel: 5374 Lbls
10:01 Spent Fuel: 6492 Lbls
10:01 Flight Length: 187 NM
10:01 TOD Land Length: 45 NM

Exportar CSV

Powered by Drupal - Modified by Danger4k